createdAt,value
2022-09-26T00:01:36.632Z,7.30
2022-09-26T00:04:09.397Z,5.75
2022-09-26T00:06:36.830Z,3.00
2022-09-26T00:09:04.552Z,3.05
2022-09-26T00:11:33.813Z,2.65
2022-09-26T00:14:07.145Z,4.25
2022-09-26T00:16:35.461Z,3.70
2022-09-26T00:19:03.537Z,5.75
2022-09-26T00:21:32.048Z,3.10
2022-09-26T00:24:01.530Z,4.60
2022-09-26T00:26:31.951Z,4.05
2022-09-26T00:29:06.961Z,2.75
2022-09-26T00:31:39.556Z,4.03
2022-09-26T00:34:07.676Z,2.60
2022-09-26T00:36:38.331Z,3.85
2022-09-26T00:39:10.629Z,6.65
2022-09-26T00:41:38.802Z,3.42
2022-09-26T00:44:52.870Z,5.33
2022-09-26T00:47:41.328Z,4.25
2022-09-26T00:50:22.754Z,3.30
2022-09-26T00:53:10.215Z,2.95
2022-09-26T00:55:42.916Z,4.53
2022-09-26T00:58:22.606Z,3.70
2022-09-26T01:00:50.909Z,4.50
2022-09-26T01:03:20.421Z,2.58
2022-09-26T01:05:48.867Z,5.55
2022-09-26T01:08:21.338Z,6.33
2022-09-26T01:10:49.945Z,8.00
2022-09-26T01:13:17.542Z,7.40
2022-09-26T01:15:45.283Z,8.35
2022-09-26T01:18:13.158Z,7.47
2022-09-26T01:21:13.237Z,5.47
2022-09-26T01:23:52.190Z,5.50
2022-09-26T01:26:49.123Z,4.20
2022-09-26T01:29:55.540Z,4.50
2022-09-26T01:32:49.718Z,3.83
2022-09-26T01:35:25.523Z,2.33
2022-09-26T01:38:17.909Z,3.17
2022-09-26T01:41:09.280Z,4.80
2022-09-26T01:43:41.935Z,4.55
2022-09-26T01:46:27.244Z,4.62
2022-09-26T01:49:20.453Z,5.75
2022-09-26T01:52:18.130Z,4.12
2022-09-26T01:55:26.476Z,4.42
2022-09-26T01:58:33.693Z,3.15
2022-09-26T02:01:15.043Z,3.67
2022-09-26T02:03:56.288Z,9.55
2022-09-26T02:06:56.534Z,6.53
2022-09-26T02:09:47.494Z,9.18
2022-09-26T02:12:24.445Z,5.12
2022-09-26T02:14:59.564Z,4.83
2022-09-26T02:17:42.571Z,4.10
2022-09-26T02:20:35.791Z,2.55
2022-09-26T02:23:11.620Z,3.70
2022-09-26T02:25:44.198Z,2.60
2022-09-26T02:28:13.720Z,2.85
2022-09-26T02:30:44.874Z,7.90
2022-09-26T02:33:14.734Z,5.05
2022-09-26T02:35:55.869Z,3.83
2022-09-26T02:38:30.597Z,4.47
2022-09-26T02:41:43.297Z,10.82
2022-09-26T02:44:37.255Z,14.95
2022-09-26T02:47:32.926Z,10.45
2022-09-26T02:50:54.328Z,5.90
2022-09-26T02:53:42.493Z,2.92
2022-09-26T02:56:32.165Z,2.90
2022-09-26T02:59:05.263Z,3.35
2022-09-26T03:01:41.678Z,5.15
2022-09-26T03:04:18.047Z,3.17
2022-09-26T03:06:51.198Z,4.62
2022-09-26T03:09:21.049Z,5.47
2022-09-26T03:11:50.497Z,2.83
2022-09-26T03:14:20.575Z,3.72
2022-09-26T03:16:50.005Z,3.05
2022-09-26T03:19:39.883Z,2.87
2022-09-26T03:22:09.102Z,5.33
2022-09-26T03:24:37.257Z,4.08
2022-09-26T03:27:05.925Z,4.25
2022-09-26T03:29:35.497Z,6.47
2022-09-26T03:32:04.164Z,6.85
2022-09-26T03:34:32.549Z,3.92
2022-09-26T03:36:59.978Z,2.35
2022-09-26T03:39:27.568Z,4.10
2022-09-26T03:41:59.729Z,3.17
2022-09-26T03:44:29.774Z,3.60
2022-09-26T03:49:42.051Z,5.15
2022-09-26T03:52:11.890Z,3.62
2022-09-26T03:54:40.242Z,4.10
2022-09-26T03:57:09.977Z,4.95
2022-09-26T03:59:39.558Z,6.85
2022-09-26T04:02:08.228Z,7.85
2022-09-26T04:04:36.250Z,4.80
2022-09-26T04:07:04.219Z,4.03
2022-09-26T04:09:31.904Z,7.35
2022-09-26T04:12:00.917Z,7.75
2022-09-26T04:14:28.791Z,9.05
2022-09-26T04:16:58.221Z,7.00
2022-09-26T04:19:31.215Z,6.83
2022-09-26T04:21:59.126Z,5.45
2022-09-26T04:24:27.519Z,4.83
2022-09-26T04:26:54.954Z,4.70
2022-09-26T04:29:22.761Z,4.47
2022-09-26T04:31:55.222Z,4.75
2022-09-26T04:34:27.262Z,4.12
2022-09-26T04:36:54.507Z,5.55
2022-09-26T04:39:22.613Z,7.05
2022-09-26T04:41:50.957Z,5.65
2022-09-26T04:44:18.633Z,6.37
2022-09-26T04:46:47.516Z,8.10
2022-09-26T04:49:15.313Z,4.50
2022-09-26T04:51:43.716Z,3.65
2022-09-26T04:54:11.391Z,8.63
2022-09-26T04:56:40.720Z,5.70
2022-09-26T04:59:08.579Z,6.05
2022-09-26T05:01:50.184Z,5.08
2022-09-26T05:04:22.851Z,7.62
2022-09-26T05:06:49.605Z,7.00
2022-09-26T05:09:20.187Z,5.40
2022-09-26T05:11:55.508Z,6.70
2022-09-26T05:14:23.309Z,7.65
2022-09-26T05:16:51.055Z,12.03
2022-09-26T05:19:20.661Z,14.83
2022-09-26T05:21:58.904Z,11.45
2022-09-26T05:24:45.503Z,13.55
2022-09-26T05:27:13.705Z,8.55
2022-09-26T05:29:41.331Z,7.37
2022-09-26T05:32:10.619Z,8.30
2022-09-26T05:34:38.285Z,5.80
2022-09-26T05:37:06.253Z,7.87
2022-09-26T05:39:52.613Z,8.25
2022-09-26T05:42:20.615Z,4.92
2022-09-26T05:44:48.566Z,5.80
2022-09-26T05:47:17.292Z,5.83
2022-09-26T05:49:45.180Z,5.03
2022-09-26T05:52:14.317Z,5.92
2022-09-26T05:54:42.039Z,6.28
2022-09-26T05:57:12.497Z,7.42
2022-09-26T05:59:53.902Z,3.90
2022-09-26T06:02:27.217Z,6.05
2022-09-26T06:05:06.684Z,7.72
2022-09-26T06:07:40.133Z,9.40
2022-09-26T06:10:09.505Z,9.05
2022-09-26T06:12:53.773Z,8.20
2022-09-26T06:15:22.649Z,9.33
2022-09-26T06:18:05.979Z,6.12
2022-09-26T06:20:34.198Z,9.85
2022-09-26T06:23:02.280Z,7.15
2022-09-26T06:25:29.815Z,6.60
2022-09-26T06:28:00.409Z,7.55
2022-09-26T06:30:29.889Z,7.97
2022-09-26T06:33:14.341Z,10.80
2022-09-26T06:36:04.998Z,10.32
2022-09-26T06:38:35.145Z,8.55
2022-09-26T06:41:04.574Z,6.67
2022-09-26T06:43:32.501Z,11.15
2022-09-26T06:46:18.360Z,10.05
2022-09-26T06:48:48.082Z,10.43
2022-09-26T06:51:17.344Z,12.70
2022-09-26T06:53:45.330Z,7.85
2022-09-26T06:56:14.947Z,6.95
2022-09-26T06:58:42.638Z,7.62
2022-09-26T07:01:11.525Z,6.08
2022-09-26T07:03:45.727Z,10.23
2022-09-26T07:06:31.162Z,10.53
2022-09-26T07:09:04.828Z,12.65
2022-09-26T07:11:45.958Z,12.43
2022-09-26T07:14:01.684Z,13.70
2022-09-26T07:16:30.452Z,15.55
2022-09-26T07:18:59.764Z,13.32
2022-09-26T07:21:29.313Z,15.65
2022-09-26T07:24:08.114Z,11.05
2022-09-26T07:26:36.163Z,10.30
2022-09-26T07:29:04.194Z,8.40
2022-09-26T07:31:32.011Z,9.90
2022-09-26T07:34:04.703Z,9.80
2022-09-26T07:36:32.630Z,9.05
2022-09-26T07:39:00.842Z,8.08
2022-09-26T07:41:32.375Z,8.50
2022-09-26T07:46:49.354Z,11.12
2022-09-26T07:49:36.031Z,10.20
2022-09-26T07:52:08.178Z,8.23
2022-09-26T07:54:37.759Z,11.88
2022-09-26T07:57:25.535Z,9.05
2022-09-26T07:59:55.088Z,7.75
2022-09-26T08:02:44.554Z,8.10
2022-09-26T08:05:18.728Z,7.85
2022-09-26T08:07:48.917Z,7.70
2022-09-26T08:10:23.571Z,6.97
2022-09-26T08:13:09.464Z,6.95
2022-09-26T08:15:38.890Z,6.22
2022-09-26T08:18:08.664Z,7.72
2022-09-26T08:20:36.496Z,6.95
2022-09-26T08:23:03.864Z,5.83
2022-09-26T08:25:31.693Z,7.92
2022-09-26T08:28:01.442Z,7.60
2022-09-26T08:30:30.807Z,6.80
2022-09-26T08:33:01.607Z,6.30
2022-09-26T08:35:35.151Z,10.35
2022-09-26T08:38:14.657Z,7.30
2022-09-26T08:41:05.802Z,9.25
2022-09-26T08:44:34.812Z,8.60
2022-09-26T08:47:49.345Z,7.12
2022-09-26T08:50:52.155Z,6.47
2022-09-26T08:53:25.041Z,8.80
2022-09-26T08:55:56.970Z,19.17
2022-09-26T08:58:33.593Z,10.72
2022-09-26T09:01:04.607Z,6.45
2022-09-26T09:03:39.539Z,7.60
2022-09-26T09:06:11.897Z,7.37
2022-09-26T09:08:46.247Z,7.78
2022-09-26T09:11:55.588Z,9.45
2022-09-26T09:15:23.466Z,9.73
2022-09-26T09:17:53.536Z,8.88
2022-09-26T09:20:52.891Z,9.53
2022-09-26T09:23:54.642Z,10.53
2022-09-26T09:30:19.285Z,7.60
2022-09-26T09:33:12.941Z,10.15
2022-09-26T09:35:52.546Z,14.30
2022-09-26T09:38:38.324Z,20.35
2022-09-26T09:41:28.002Z,13.88
2022-09-26T09:44:05.845Z,10.28
2022-09-26T09:46:40.641Z,11.35
2022-09-26T09:49:16.472Z,12.07
2022-09-26T09:52:15.522Z,8.50
2022-09-26T09:55:32.605Z,8.40
2022-09-26T09:58:08.551Z,11.28
2022-09-26T10:00:50.472Z,6.35
2022-09-26T10:03:35.792Z,9.88
2022-09-26T10:06:09.424Z,6.20
2022-09-26T10:08:40.894Z,6.83
2022-09-26T10:11:30.381Z,5.90
2022-09-26T10:14:02.829Z,5.28
2022-09-26T10:16:34.734Z,8.28
2022-09-26T10:19:08.937Z,6.37
2022-09-26T10:21:40.254Z,6.30
2022-09-26T10:24:24.505Z,9.18
2022-09-26T10:26:54.247Z,8.58
2022-09-26T10:29:31.999Z,9.98
2022-09-26T10:32:00.513Z,12.60
2022-09-26T10:34:33.757Z,10.10
2022-09-26T10:37:25.298Z,7.00
2022-09-26T10:40:17.305Z,8.65
2022-09-26T10:42:46.847Z,10.08
2022-09-26T10:45:19.840Z,10.70
2022-09-26T10:47:59.461Z,5.40
2022-09-26T10:50:52.020Z,4.40
2022-09-26T10:53:38.154Z,2.65
2022-09-26T10:56:13.222Z,4.65
2022-09-26T10:58:45.197Z,2.35
2022-09-26T11:01:25.750Z,3.33
2022-09-26T11:03:56.421Z,3.00
2022-09-26T11:06:35.950Z,6.58
2022-09-26T11:09:20.890Z,5.47
2022-09-26T11:12:30.678Z,4.75
2022-09-26T11:15:09.848Z,2.60
2022-09-26T11:17:50.757Z,2.67
2022-09-26T11:20:53.024Z,4.25
2022-09-26T11:23:49.655Z,9.80
2022-09-26T11:26:38.820Z,6.50
2022-09-26T11:29:24.564Z,6.72
2022-09-26T11:31:58.225Z,4.10
2022-09-26T11:34:33.751Z,3.22
2022-09-26T11:37:59.903Z,4.47
2022-09-26T11:40:56.499Z,3.85
2022-09-26T11:43:58.851Z,3.27
2022-09-26T11:46:48.209Z,8.45
2022-09-26T11:49:59.218Z,3.02
2022-09-26T11:52:48.362Z,4.00
2022-09-26T11:55:38.130Z,3.70
2022-09-26T11:58:43.029Z,4.55
2022-09-26T12:01:19.373Z,1.87
2022-09-26T12:04:01.648Z,2.83
2022-09-26T12:06:38.131Z,3.30
2022-09-26T12:09:27.055Z,3.10
2022-09-26T12:12:06.395Z,3.80
2022-09-26T12:14:56.447Z,5.10
2022-09-26T12:17:49.142Z,5.20
2022-09-26T12:20:27.552Z,6.78
2022-09-26T12:23:18.527Z,8.03
2022-09-26T12:26:08.351Z,8.15
2022-09-26T12:28:56.885Z,11.55
2022-09-26T12:32:03.494Z,9.88
2022-09-26T12:35:04.422Z,14.10
2022-09-26T12:37:52.719Z,14.30
2022-09-26T12:40:28.842Z,11.97
2022-09-26T12:43:44.285Z,13.05
2022-09-26T12:46:44.653Z,9.65
2022-09-26T12:49:32.158Z,9.73
2022-09-26T12:52:14.135Z,6.87
2022-09-26T12:55:14.545Z,6.92
2022-09-26T12:58:05.522Z,7.92
2022-09-26T13:00:39.290Z,6.87
2022-09-26T13:03:24.716Z,6.95
2022-09-26T13:06:09.977Z,9.88
2022-09-26T13:09:35.438Z,10.55
2022-09-26T13:12:30.924Z,11.63
2022-09-26T13:15:25.991Z,12.37
2022-09-26T13:18:14.620Z,10.48
2022-09-26T13:20:45.683Z,10.08
2022-09-26T13:23:33.302Z,10.20
2022-09-26T13:26:18.636Z,8.08
2022-09-26T13:29:16.305Z,6.65
2022-09-26T13:31:43.216Z,8.90
2022-09-26T13:34:25.783Z,6.90
2022-09-26T13:36:55.044Z,6.67
2022-09-26T13:39:37.938Z,7.40
2022-09-26T13:42:17.455Z,8.53
2022-09-26T13:44:53.755Z,8.60
2022-09-26T13:47:38.714Z,8.60
2022-09-26T13:50:22.524Z,7.85
2022-09-26T13:53:04.295Z,9.15
2022-09-26T13:55:33.134Z,6.87
2022-09-26T13:58:20.698Z,9.25
2022-09-26T14:00:50.459Z,8.15
2022-09-26T14:03:23.645Z,8.53
2022-09-26T14:05:54.081Z,7.47
2022-09-26T14:08:50.202Z,9.88
2022-09-26T14:11:29.966Z,6.35
2022-09-26T14:14:21.061Z,7.95
2022-09-26T14:16:54.895Z,5.75
2022-09-26T14:19:46.160Z,6.95
2022-09-26T14:22:34.265Z,10.72
2022-09-26T14:25:02.148Z,7.17
2022-09-26T14:27:41.555Z,11.48
2022-09-26T14:30:30.110Z,5.80
2022-09-26T14:33:04.726Z,8.03
2022-09-26T14:35:37.681Z,7.03
2022-09-26T14:38:15.886Z,7.53
2022-09-26T14:40:56.340Z,7.55
2022-09-26T14:43:27.660Z,6.75
2022-09-26T14:46:04.688Z,6.85
2022-09-26T14:48:38.213Z,8.20
2022-09-26T14:51:18.888Z,7.05
2022-09-26T14:53:59.455Z,9.13
2022-09-26T14:56:40.165Z,7.95
2022-09-26T14:59:34.845Z,11.53
2022-09-26T15:02:26.325Z,9.73
2022-09-26T15:05:03.526Z,11.80
2022-09-26T15:07:50.806Z,9.10
2022-09-26T15:10:27.079Z,10.53
2022-09-26T15:13:08.813Z,9.70
2022-09-26T15:16:05.037Z,12.40
2022-09-26T15:18:40.956Z,10.82
2022-09-26T15:21:37.892Z,9.35
2022-09-26T15:24:33.328Z,13.30
2022-09-26T15:27:14.247Z,8.95
2022-09-26T15:29:50.884Z,8.35
2022-09-26T15:32:26.028Z,7.72
2022-09-26T15:34:55.457Z,14.95
2022-09-26T15:37:30.355Z,11.20
2022-09-26T15:40:21.252Z,13.80
2022-09-26T15:43:00.803Z,10.10
2022-09-26T15:45:49.974Z,9.98
2022-09-26T15:48:28.910Z,15.65
2022-09-26T15:51:01.940Z,9.38
2022-09-26T15:53:39.077Z,11.43
2022-09-26T15:56:20.966Z,8.80
2022-09-26T15:58:57.081Z,9.48
2022-09-26T16:01:29.598Z,12.53
2022-09-26T16:04:16.834Z,12.53
2022-09-26T16:06:58.726Z,11.53
2022-09-26T16:09:36.465Z,15.00
2022-09-26T16:12:22.063Z,10.70
2022-09-26T16:15:06.918Z,17.77
2022-09-26T16:17:39.727Z,17.65
2022-09-26T16:20:21.455Z,17.57
2022-09-26T16:22:58.078Z,20.32
2022-09-26T16:25:46.023Z,22.70
2022-09-26T16:28:20.348Z,13.30
2022-09-26T16:30:59.518Z,12.23
2022-09-26T16:33:31.166Z,14.75
2022-09-26T16:36:14.527Z,13.98
2022-09-26T16:38:42.660Z,20.50
2022-09-26T16:44:08.629Z,21.30
2022-09-26T16:46:39.000Z,16.73
2022-09-26T16:49:44.297Z,14.07
2022-09-26T16:52:33.402Z,13.60
2022-09-26T16:55:05.504Z,12.45
2022-09-26T16:57:39.446Z,14.40
2022-09-26T17:00:36.366Z,14.13
2022-09-26T17:03:24.835Z,14.93
2022-09-26T17:05:55.828Z,14.33
2022-09-26T17:08:27.900Z,16.57
2022-09-26T17:11:00.805Z,18.87
2022-09-26T17:13:32.532Z,12.70
2022-09-26T17:16:02.709Z,15.75
2022-09-26T17:18:32.576Z,12.98
2022-09-26T17:21:00.857Z,14.90
2022-09-26T17:23:45.825Z,14.83
2022-09-26T17:26:00.407Z,14.23
2022-09-26T17:28:33.520Z,15.28
2022-09-26T17:31:03.893Z,23.60
2022-09-26T17:33:32.315Z,20.02
2022-09-26T17:36:01.715Z,17.37
2022-09-26T17:38:29.707Z,13.05
2022-09-26T17:40:57.727Z,14.78
2022-09-26T17:43:25.423Z,10.68
2022-09-26T17:45:53.358Z,14.35
2022-09-26T17:48:32.611Z,16.85
2022-09-26T17:51:02.210Z,21.23
2022-09-26T17:53:37.316Z,19.90
2022-09-26T17:56:07.062Z,20.85
2022-09-26T17:58:37.957Z,15.10
2022-09-26T18:01:08.359Z,11.18
2022-09-26T18:03:39.245Z,12.68
2022-09-26T18:06:07.587Z,13.05
2022-09-26T18:08:38.258Z,14.40
2022-09-26T18:11:13.537Z,13.58
2022-09-26T18:13:49.740Z,17.48
2022-09-26T18:16:17.621Z,11.45
2022-09-26T18:18:45.325Z,12.47
2022-09-26T18:21:18.321Z,14.20
2022-09-26T18:23:58.696Z,16.10
2022-09-26T18:26:33.498Z,23.30
2022-09-26T18:29:07.025Z,16.27
2022-09-26T18:31:40.408Z,11.90
2022-09-26T18:34:16.735Z,10.55
2022-09-26T18:36:44.996Z,13.05
2022-09-26T18:39:12.837Z,13.35
2022-09-26T18:41:40.767Z,15.28
2022-09-26T18:44:16.316Z,11.25
2022-09-26T18:46:46.470Z,10.50
2022-09-26T18:49:14.855Z,9.95
2022-09-26T18:51:43.149Z,11.68
2022-09-26T18:54:14.240Z,14.50
2022-09-26T18:57:01.213Z,14.50
2022-09-26T18:59:32.265Z,14.55
2022-09-26T19:02:01.978Z,19.85
2022-09-26T19:04:30.319Z,21.07
2022-09-26T19:07:01.072Z,25.92
2022-09-26T19:09:35.227Z,22.30
2022-09-26T19:12:04.115Z,20.57
2022-09-26T19:14:32.046Z,18.90
2022-09-26T19:16:59.918Z,16.15
2022-09-26T19:19:31.956Z,18.87
2022-09-26T19:22:08.808Z,21.68
2022-09-26T19:24:52.634Z,21.45
2022-09-26T19:27:27.037Z,19.52
2022-09-26T19:30:06.045Z,17.62
2022-09-26T19:32:41.690Z,18.15
2022-09-26T19:35:32.557Z,19.12
2022-09-26T19:38:03.166Z,17.00
2022-09-26T19:40:31.142Z,20.62
2022-09-26T19:43:00.885Z,16.37
2022-09-26T19:45:32.290Z,14.80
2022-09-26T19:48:00.910Z,13.75
2022-09-26T19:50:32.694Z,15.90
2022-09-26T19:53:02.491Z,16.82
2022-09-26T19:55:31.892Z,19.75
2022-09-26T19:58:16.224Z,18.17
2022-09-26T20:00:44.564Z,16.57
2022-09-26T20:03:19.415Z,17.92
2022-09-26T20:05:51.951Z,12.23
2022-09-26T20:08:24.529Z,10.63
2022-09-26T20:10:54.349Z,11.85
2022-09-26T20:13:22.181Z,9.98
2022-09-26T20:15:50.299Z,10.82
2022-09-26T20:18:21.739Z,9.65
2022-09-26T20:20:55.726Z,22.15
2022-09-26T20:23:26.778Z,14.58
2022-09-26T20:25:55.454Z,11.75
2022-09-26T20:28:23.324Z,12.05
2022-09-26T20:30:50.947Z,8.78
2022-09-26T20:33:21.795Z,9.30
2022-09-26T20:35:53.380Z,6.97
2022-09-26T20:38:34.185Z,8.70
2022-09-26T20:41:35.731Z,9.20
2022-09-26T20:44:25.790Z,10.65
2022-09-26T20:46:59.556Z,8.25
2022-09-26T20:49:38.716Z,11.95
2022-09-26T20:52:08.299Z,12.33
2022-09-26T20:54:36.066Z,13.72
2022-09-26T20:57:03.892Z,11.20
2022-09-26T20:59:33.402Z,12.45
2022-09-26T21:02:06.238Z,15.45
2022-09-26T21:04:33.937Z,12.85
2022-09-26T21:07:01.406Z,14.58
2022-09-26T21:09:29.206Z,12.47
2022-09-26T21:11:56.986Z,14.13
2022-09-26T21:14:25.536Z,10.03
2022-09-26T21:16:54.220Z,11.10
2022-09-26T21:19:24.529Z,12.37
2022-09-26T21:21:55.919Z,11.75
2022-09-26T21:24:38.146Z,10.32
2022-09-26T21:27:11.665Z,14.03
2022-09-26T21:29:41.159Z,13.83
2022-09-26T21:32:13.492Z,10.75
2022-09-26T21:34:41.678Z,13.62
2022-09-26T21:37:10.610Z,11.22
2022-09-26T21:39:39.531Z,15.90
2022-09-26T21:42:07.410Z,10.65
2022-09-26T21:44:40.319Z,11.73
2022-09-26T21:47:08.273Z,11.83
2022-09-26T21:49:36.001Z,10.65
2022-09-26T21:52:17.321Z,10.90
2022-09-26T21:54:45.274Z,12.90
2022-09-26T21:57:23.582Z,10.00
2022-09-26T21:59:53.512Z,10.98
2022-09-26T22:02:21.198Z,14.50
2022-09-26T22:04:49.506Z,15.20
2022-09-26T22:07:17.325Z,16.02
2022-09-26T22:09:45.155Z,29.25
2022-09-26T22:12:12.930Z,43.55
2022-09-26T22:14:41.117Z,42.73
2022-09-26T22:17:09.168Z,28.38
2022-09-26T22:19:36.982Z,25.57
2022-09-26T22:22:05.247Z,26.07
2022-09-26T22:24:33.381Z,19.12
2022-09-26T22:27:01.641Z,15.15
2022-09-26T22:29:29.658Z,26.02
2022-09-26T22:31:57.518Z,26.25
2022-09-26T22:34:28.441Z,15.58
2022-09-26T22:36:56.255Z,13.03
2022-09-26T22:39:24.283Z,15.38
2022-09-26T22:41:52.298Z,11.90
2022-09-26T22:44:19.993Z,14.93
2022-09-26T22:46:47.754Z,14.23
2022-09-26T22:49:15.637Z,16.35
2022-09-26T22:51:43.543Z,16.62
2022-09-26T22:54:11.507Z,17.82
2022-09-26T22:56:39.199Z,13.10
2022-09-26T22:59:07.067Z,13.60
2022-09-26T23:01:34.854Z,11.78
2022-09-26T23:04:02.790Z,14.20
2022-09-26T23:06:31.870Z,11.08
2022-09-26T23:08:59.582Z,11.28
2022-09-26T23:11:27.848Z,12.68
2022-09-26T23:13:55.575Z,11.70
2022-09-26T23:16:26.912Z,14.03
2022-09-26T23:18:55.204Z,11.40
2022-09-26T23:21:26.443Z,13.53
2022-09-26T23:23:57.193Z,11.53
2022-09-26T23:26:30.768Z,12.63
2022-09-26T23:28:59.183Z,11.78
2022-09-26T23:31:28.489Z,11.65
2022-09-26T23:33:56.893Z,11.10
2022-09-26T23:36:25.081Z,14.98
2022-09-26T23:38:52.875Z,16.40
2022-09-26T23:41:20.604Z,16.35
2022-09-26T23:43:48.388Z,14.68
2022-09-26T23:46:16.773Z,11.93
2022-09-26T23:48:44.462Z,15.08
2022-09-26T23:51:12.168Z,13.43
2022-09-26T23:53:39.958Z,12.93
2022-09-26T23:56:10.989Z,9.93
2022-09-26T23:58:38.957Z,14.00
